createdAt,value
2018-08-20T00:00:45.027Z,58.90
2018-08-20T00:02:49.168Z,59.20
2018-08-20T00:04:53.268Z,59.10
2018-08-20T00:06:59.263Z,59.20
2018-08-20T00:09:04.008Z,59.40
2018-08-20T00:11:07.964Z,59.50
2018-08-20T00:13:11.857Z,59.40
2018-08-20T00:15:17.103Z,59.80
2018-08-20T00:17:22.125Z,60.80
2018-08-20T00:19:27.444Z,60.20
2018-08-20T00:21:32.705Z,60.40
2018-08-20T00:23:36.524Z,60.40
2018-08-20T00:25:43.097Z,60.60
2018-08-20T00:27:48.134Z,60.50
2018-08-20T00:29:51.990Z,60.60
2018-08-20T00:31:56.817Z,60.70
2018-08-20T00:34:00.732Z,61.20
2018-08-20T00:36:04.656Z,61.10
2018-08-20T00:38:08.671Z,61.00
2018-08-20T00:40:12.913Z,61.50
2018-08-20T00:42:16.802Z,61.80
2018-08-20T00:44:22.906Z,61.50
2018-08-20T00:46:27.068Z,62.00
2018-08-20T00:48:31.005Z,62.20
2018-08-20T00:50:36.748Z,62.60
2018-08-20T00:52:43.232Z,63.00
2018-08-20T00:54:47.216Z,63.10
2018-08-20T00:56:51.686Z,63.20
2018-08-20T00:58:55.915Z,63.50
2018-08-20T01:01:06.835Z,63.90
2018-08-20T01:03:10.637Z,63.80
2018-08-20T01:05:14.448Z,64.00
2018-08-20T01:07:18.427Z,64.30
2018-08-20T01:09:22.371Z,64.50
2018-08-20T01:11:26.251Z,64.50
2018-08-20T01:13:30.147Z,64.40
2018-08-20T01:15:34.469Z,64.60
2018-08-20T01:17:38.603Z,65.00
2018-08-20T01:19:42.390Z,64.70
2018-08-20T01:21:46.191Z,64.80
2018-08-20T01:23:50.620Z,65.10
2018-08-20T01:26:00.398Z,65.90
2018-08-20T01:28:04.280Z,66.80
2018-08-20T01:30:08.168Z,66.40
2018-08-20T01:32:12.109Z,66.00
2018-08-20T01:34:16.003Z,65.60
2018-08-20T01:36:19.873Z,65.90
2018-08-20T01:38:23.784Z,66.10
2018-08-20T01:40:28.260Z,66.20
2018-08-20T01:42:35.384Z,66.40
2018-08-20T01:44:39.336Z,67.10
2018-08-20T01:46:43.322Z,67.70
2018-08-20T01:48:47.915Z,67.60
2018-08-20T01:50:52.566Z,68.90
2018-08-20T01:52:57.535Z,69.60
2018-08-20T01:55:06.538Z,69.60
2018-08-20T01:57:11.462Z,69.00
2018-08-20T01:59:16.604Z,69.20
2018-08-20T02:01:23.144Z,68.40
2018-08-20T02:03:29.176Z,69.40
2018-08-20T02:05:35.935Z,70.20
2018-08-20T02:07:39.822Z,70.60
2018-08-20T02:09:48.302Z,70.80
2018-08-20T02:11:52.808Z,70.60
2018-08-20T02:16:18.619Z,70.60
2018-08-20T02:18:24.008Z,70.20
2018-08-20T02:20:28.374Z,69.40
2018-08-20T02:22:34.345Z,69.10
2018-08-20T02:24:39.961Z,68.90
2018-08-20T02:26:51.702Z,68.40
2018-08-20T02:28:55.964Z,68.60
2018-08-20T02:31:00.934Z,68.30
2018-08-20T02:35:38.688Z,68.40
2018-08-20T02:37:45.847Z,68.50
2018-08-20T02:39:50.722Z,69.20
2018-08-20T02:41:57.029Z,70.00
2018-08-20T02:44:01.509Z,68.70
2018-08-20T02:46:06.468Z,69.50
2018-08-20T02:48:25.136Z,69.70
2018-08-20T02:50:28.990Z,69.90
2018-08-20T02:57:44.818Z,69.00
2018-08-20T02:59:48.819Z,69.00
2018-08-20T03:01:52.767Z,69.10
2018-08-20T03:03:56.691Z,69.10
2018-08-20T03:06:00.581Z,69.50
2018-08-20T03:08:04.912Z,70.30
2018-08-20T03:10:10.974Z,70.50
2018-08-20T03:12:15.518Z,70.00
2018-08-20T03:14:19.609Z,69.50
2018-08-20T03:16:23.910Z,69.10
2018-08-20T03:18:27.811Z,69.20
2018-08-20T03:20:32.239Z,69.60
2018-08-20T03:22:38.139Z,69.20
2018-08-20T03:24:43.739Z,69.40
2018-08-20T03:26:47.764Z,70.00
2018-08-20T03:28:51.845Z,69.50
2018-08-20T03:31:02.616Z,69.20
2018-08-20T03:33:07.508Z,70.70
2018-08-20T03:35:21.017Z,70.60
2018-08-20T03:37:26.530Z,70.00
2018-08-20T03:39:32.026Z,69.60
2018-08-20T03:41:35.927Z,69.70
2018-08-20T03:43:39.810Z,70.60
2018-08-20T03:45:43.713Z,71.10
2018-08-20T03:47:47.689Z,71.10
2018-08-20T03:49:51.820Z,71.50
2018-08-20T03:51:55.703Z,70.70
2018-08-20T03:54:00.011Z,70.50
2018-08-20T03:56:06.068Z,70.00
2018-08-20T03:58:09.916Z,69.70
2018-08-20T04:00:23.360Z,69.60
2018-08-20T04:02:27.277Z,69.40
2018-08-20T04:04:31.667Z,70.40
2018-08-20T04:06:40.736Z,69.90
2018-08-20T04:08:44.747Z,70.20
2018-08-20T04:10:48.770Z,70.20
2018-08-20T04:12:54.481Z,70.20
2018-08-20T04:15:00.512Z,70.10
2018-08-20T04:17:04.721Z,70.00
2018-08-20T04:19:09.346Z,70.20
2018-08-20T04:21:15.339Z,70.00
2018-08-20T04:23:19.634Z,70.10
2018-08-20T04:25:39.997Z,70.20
2018-08-20T04:29:56.695Z,70.60
2018-08-20T04:32:07.371Z,70.70
2018-08-20T04:34:11.514Z,70.80
2018-08-20T04:36:16.925Z,70.80
2018-08-20T04:38:23.363Z,70.80
2018-08-20T04:40:29.100Z,71.20
2018-08-20T04:42:33.565Z,70.80
2018-08-20T04:44:39.148Z,70.60
2018-08-20T04:46:46.720Z,70.60
2018-08-20T04:48:50.867Z,70.50
2018-08-20T04:50:57.365Z,70.30
2018-08-20T04:53:04.270Z,70.70
2018-08-20T04:55:14.470Z,70.60
2018-08-20T04:57:22.667Z,70.30
2018-08-20T04:59:30.554Z,70.00
2018-08-20T05:01:42.326Z,69.70
2018-08-20T05:03:48.492Z,69.50
2018-08-20T05:05:55.877Z,69.30
2018-08-20T05:08:03.011Z,69.20
2018-08-20T05:10:13.233Z,69.60
2018-08-20T05:12:18.543Z,68.30
2018-08-20T05:14:25.048Z,68.00
2018-08-20T05:16:33.381Z,67.50
2018-08-20T05:18:38.797Z,67.10
2018-08-20T05:20:48.297Z,66.70
2018-08-20T05:22:55.338Z,66.00
2018-08-20T05:25:01.822Z,65.70
2018-08-20T05:27:08.775Z,65.10
2018-08-20T05:29:26.839Z,64.70
2018-08-20T05:31:35.008Z,64.10
2018-08-20T05:33:41.392Z,63.90
2018-08-20T05:35:47.901Z,63.80
2018-08-20T05:37:54.824Z,63.60
2018-08-20T05:40:00.289Z,63.40
2018-08-20T05:42:06.070Z,63.20
2018-08-20T05:44:12.273Z,62.70
2018-08-20T05:46:20.043Z,62.30
2018-08-20T05:48:25.707Z,61.80
2018-08-20T05:50:36.368Z,61.40
2018-08-20T05:52:42.330Z,61.30
2018-08-20T05:54:49.767Z,60.90
2018-08-20T05:56:56.425Z,60.40
2018-08-20T05:59:05.196Z,59.80
2018-08-20T06:01:16.193Z,59.20
2018-08-20T06:03:26.912Z,58.90
2018-08-20T06:05:34.737Z,58.70
2018-08-20T06:07:51.135Z,58.40
2018-08-20T06:09:59.177Z,57.90
2018-08-20T06:12:03.879Z,57.50
2018-08-20T06:14:09.190Z,57.10
2018-08-20T06:16:16.786Z,56.50
2018-08-20T06:18:22.791Z,55.90
2018-08-20T06:20:27.664Z,55.90
2018-08-20T06:22:35.889Z,55.90
2018-08-20T06:24:41.121Z,56.10
2018-08-20T06:26:46.174Z,56.10
2018-08-20T06:28:57.776Z,56.40
2018-08-20T06:31:04.838Z,56.50
2018-08-20T06:33:10.175Z,56.70
2018-08-20T06:35:18.197Z,57.10
2018-08-20T06:37:25.148Z,57.50
2018-08-20T06:39:29.825Z,57.70
2018-08-20T06:41:34.082Z,57.60
2018-08-20T06:43:38.757Z,57.40
2018-08-20T06:45:43.208Z,57.30
2018-08-20T06:48:02.742Z,57.20
2018-08-20T06:50:17.175Z,56.90
2018-08-20T06:52:21.897Z,57.50
2018-08-20T06:54:29.689Z,57.70
2018-08-20T06:56:35.298Z,57.70
2018-08-20T06:58:42.098Z,57.50
2018-08-20T07:00:51.158Z,57.40
2018-08-20T07:03:03.922Z,57.40
2018-08-20T07:05:09.604Z,57.60
2018-08-20T07:07:16.041Z,57.40
2018-08-20T07:09:22.636Z,57.20
2018-08-20T07:11:28.909Z,57.30
2018-08-20T07:13:39.494Z,56.80
2018-08-20T07:15:45.791Z,56.90
2018-08-20T07:17:57.866Z,57.60
2018-08-20T07:20:03.031Z,56.80
2018-08-20T07:22:10.360Z,56.50
2018-08-20T07:24:18.734Z,55.90
2018-08-20T07:26:25.601Z,55.20
2018-08-20T07:28:32.026Z,54.80
2018-08-20T07:30:40.470Z,54.90
2018-08-20T07:32:47.264Z,54.50
2018-08-20T07:34:54.022Z,54.20
2018-08-20T07:36:59.359Z,54.20
2018-08-20T07:39:06.991Z,54.20
2018-08-20T07:41:13.066Z,53.70
2018-08-20T07:43:19.529Z,53.60
2018-08-20T07:45:30.608Z,53.90
2018-08-20T07:47:42.052Z,53.90
2018-08-20T07:49:47.789Z,54.40
2018-08-20T07:51:57.417Z,54.50
2018-08-20T07:54:03.248Z,54.60
2018-08-20T07:56:09.433Z,53.60
2018-08-20T07:58:17.007Z,53.00
2018-08-20T08:00:25.180Z,52.40
2018-08-20T08:02:30.270Z,51.90
2018-08-20T08:04:35.234Z,51.50
2018-08-20T08:06:43.962Z,51.90
2018-08-20T08:08:54.325Z,52.30
2018-08-20T08:11:01.680Z,52.30
2018-08-20T08:13:13.447Z,52.50
2018-08-20T08:15:23.332Z,53.00
2018-08-20T08:17:30.152Z,53.60
2018-08-20T08:19:34.346Z,53.50
2018-08-20T08:21:45.013Z,53.40
2018-08-20T08:23:49.230Z,54.00
2018-08-20T08:25:54.118Z,53.90
2018-08-20T08:27:58.180Z,54.50
2018-08-20T08:30:05.908Z,54.10
2018-08-20T08:32:10.474Z,54.00
2018-08-20T08:34:15.281Z,53.40
2018-08-20T08:36:19.650Z,53.20
2018-08-20T08:38:26.508Z,53.30
2018-08-20T08:40:32.475Z,54.00
2018-08-20T08:42:38.598Z,54.60
2018-08-20T08:44:43.934Z,54.50
2018-08-20T08:46:48.581Z,54.80
2018-08-20T08:48:56.803Z,55.10
2018-08-20T08:51:01.599Z,55.10
2018-08-20T08:53:11.014Z,55.80
2018-08-20T08:55:16.497Z,56.00
2018-08-20T08:57:21.627Z,56.30
2018-08-20T08:59:26.272Z,55.70
2018-08-20T09:01:31.853Z,55.20
2018-08-20T09:03:38.136Z,54.40
2018-08-20T09:05:49.195Z,53.50
2018-08-20T09:07:58.511Z,52.50
2018-08-20T09:10:03.268Z,52.50
2018-08-20T09:12:09.483Z,52.30
2018-08-20T09:14:17.584Z,51.60
2018-08-20T09:16:22.751Z,51.50
2018-08-20T09:18:28.133Z,52.30
2018-08-20T09:20:36.397Z,52.20
2018-08-20T09:22:42.535Z,51.90
2018-08-20T09:24:47.540Z,51.30
2018-08-20T09:26:53.158Z,50.70
2018-08-20T09:28:57.832Z,49.90
2018-08-20T09:31:03.187Z,49.70
2018-08-20T09:33:09.106Z,49.30
2018-08-20T09:35:18.421Z,49.10
2018-08-20T09:37:24.357Z,48.30
2018-08-20T09:39:32.226Z,47.90
2018-08-20T09:41:38.369Z,47.80
2018-08-20T09:43:45.986Z,47.70
2018-08-20T09:45:51.863Z,47.80
2018-08-20T09:47:59.074Z,47.20
2018-08-20T09:50:03.818Z,47.10
2018-08-20T09:52:13.063Z,47.20
2018-08-20T09:54:20.696Z,47.10
2018-08-20T09:56:29.528Z,47.60
2018-08-20T09:58:34.020Z,47.40
2018-08-20T10:00:39.918Z,47.30
2018-08-20T10:02:47.481Z,46.50
2018-08-20T10:04:53.877Z,46.30
2018-08-20T10:06:59.570Z,45.60
2018-08-20T10:09:04.770Z,45.40
2018-08-20T10:11:16.034Z,45.60
2018-08-20T10:13:25.945Z,45.80
2018-08-20T10:15:32.236Z,45.20
2018-08-20T10:17:38.839Z,44.00
2018-08-20T10:19:48.560Z,44.30
2018-08-20T10:27:03.116Z,43.50
2018-08-20T10:29:07.096Z,44.30
2018-08-20T10:31:12.045Z,44.70
2018-08-20T10:33:19.270Z,44.80
2018-08-20T10:35:26.436Z,44.30
2018-08-20T10:37:34.082Z,43.10
2018-08-20T10:39:43.106Z,41.80
2018-08-20T10:41:51.415Z,41.60
2018-08-20T10:44:01.659Z,40.30
2018-08-20T10:46:11.927Z,40.90
2018-08-20T10:48:18.072Z,40.60
2018-08-20T10:50:32.765Z,40.40
2018-08-20T10:52:38.271Z,40.60
2018-08-20T10:54:45.074Z,40.60
2018-08-20T10:56:49.558Z,40.40
2018-08-20T10:58:53.806Z,40.20
2018-08-20T11:00:59.429Z,39.20
2018-08-20T11:03:03.816Z,39.20
2018-08-20T11:05:13.180Z,39.20
2018-08-20T11:12:39.539Z,39.20
2018-08-20T11:14:45.313Z,38.40
2018-08-20T11:16:49.392Z,38.00
2018-08-20T11:18:58.758Z,37.80
2018-08-20T11:21:05.957Z,36.20
2018-08-20T11:23:10.043Z,35.80
2018-08-20T11:25:15.418Z,36.00
2018-08-20T11:27:22.173Z,36.60
2018-08-20T11:31:35.577Z,36.50
2018-08-20T11:33:42.468Z,36.70
2018-08-20T11:35:46.768Z,36.30
2018-08-20T11:37:51.089Z,36.40
2018-08-20T11:39:57.358Z,36.30
2018-08-20T11:42:02.374Z,37.10
2018-08-20T11:44:11.849Z,37.60
2018-08-20T11:46:20.635Z,36.80
2018-08-20T11:48:24.716Z,35.70
2018-08-20T11:50:31.224Z,36.40
2018-08-20T11:52:36.332Z,36.80
2018-08-20T11:54:45.129Z,36.90
2018-08-20T11:56:53.758Z,37.20
2018-08-20T11:59:03.611Z,37.80
2018-08-20T12:01:27.334Z,37.90
2018-08-20T12:03:34.319Z,37.80
2018-08-20T12:05:40.597Z,38.20
2018-08-20T12:07:46.556Z,37.80
2018-08-20T12:09:51.393Z,37.30
2018-08-20T12:11:56.680Z,37.70
2018-08-20T12:14:02.518Z,37.30
2018-08-20T12:16:07.785Z,37.50
2018-08-20T12:18:13.191Z,37.20
2018-08-20T12:20:20.126Z,37.00
2018-08-20T12:22:27.639Z,37.80
2018-08-20T12:24:33.043Z,37.30
2018-08-20T12:26:37.347Z,37.30
2018-08-20T12:28:41.383Z,37.80
2018-08-20T12:30:46.723Z,38.20
2018-08-20T12:32:50.698Z,38.20
2018-08-20T12:34:54.611Z,38.50
2018-08-20T12:37:01.818Z,38.50
2018-08-20T12:39:10.384Z,38.80
2018-08-20T12:41:20.765Z,39.60
2018-08-20T12:43:34.644Z,39.50
2018-08-20T12:45:39.275Z,39.60
2018-08-20T12:47:44.040Z,39.10
2018-08-20T12:49:49.355Z,39.00
2018-08-20T12:51:54.138Z,38.90
2018-08-20T12:54:00.303Z,38.50
2018-08-20T12:56:05.620Z,38.60
2018-08-20T12:58:11.344Z,38.70
2018-08-20T13:00:15.376Z,38.80
2018-08-20T13:02:19.900Z,38.70
2018-08-20T13:04:27.690Z,39.40
2018-08-20T13:06:31.699Z,39.60
2018-08-20T13:08:38.426Z,39.60
2018-08-20T13:10:43.946Z,39.20
2018-08-20T13:12:49.463Z,39.60
2018-08-20T13:14:54.649Z,39.40
2018-08-20T13:16:59.504Z,39.20
2018-08-20T13:19:04.733Z,39.80
2018-08-20T13:21:13.574Z,40.40
2018-08-20T13:23:18.565Z,39.60
2018-08-20T13:25:22.984Z,38.90
2018-08-20T13:27:32.636Z,38.50
2018-08-20T13:29:36.499Z,38.20
2018-08-20T13:31:40.467Z,38.50
2018-08-20T13:33:44.753Z,38.60
2018-08-20T13:35:50.272Z,38.40
2018-08-20T13:42:12.049Z,38.20
2018-08-20T13:44:16.875Z,38.40
2018-08-20T13:46:21.422Z,38.10
2018-08-20T13:48:25.719Z,38.20
2018-08-20T13:50:30.347Z,38.50
2018-08-20T13:52:34.904Z,38.50
2018-08-20T13:54:40.593Z,38.30
2018-08-20T13:56:49.512Z,37.20
2018-08-20T13:58:53.433Z,36.40
2018-08-20T14:00:59.513Z,35.40
2018-08-20T14:03:03.439Z,35.40
2018-08-20T14:05:09.379Z,35.20
2018-08-20T14:07:17.463Z,34.80
2018-08-20T14:09:23.201Z,34.80
2018-08-20T14:11:34.188Z,34.70
2018-08-20T14:13:40.701Z,35.90
2018-08-20T14:15:45.789Z,36.00
2018-08-20T14:17:52.544Z,35.80
2018-08-20T14:19:58.084Z,35.80
2018-08-20T14:22:02.036Z,35.40
2018-08-20T14:24:06.036Z,34.90
2018-08-20T14:26:10.281Z,34.80
2018-08-20T14:28:15.266Z,35.00
2018-08-20T14:30:23.318Z,34.80
2018-08-20T14:32:28.697Z,34.80
2018-08-20T14:34:32.657Z,35.00
2018-08-20T14:36:36.796Z,34.90
2018-08-20T14:38:41.106Z,34.90
2018-08-20T14:40:45.005Z,35.20
2018-08-20T14:42:48.964Z,35.00
2018-08-20T14:44:54.772Z,35.00
2018-08-20T14:47:00.364Z,35.00
2018-08-20T14:49:07.046Z,34.90
2018-08-20T14:51:11.990Z,34.70
2018-08-20T14:53:15.906Z,35.70
2018-08-20T14:55:32.704Z,37.70
2018-08-20T14:57:37.124Z,38.60
2018-08-20T14:59:42.691Z,39.40
2018-08-20T15:01:46.822Z,39.80
2018-08-20T15:03:51.343Z,40.50
2018-08-20T15:05:55.244Z,40.90
2018-08-20T15:08:02.712Z,41.50
2018-08-20T15:10:07.913Z,41.50
2018-08-20T15:12:11.839Z,41.40
2018-08-20T15:14:16.799Z,41.10
2018-08-20T15:16:24.288Z,40.50
2018-08-20T15:18:28.942Z,39.90
2018-08-20T15:20:33.572Z,39.50
2018-08-20T15:22:38.653Z,39.40
2018-08-20T15:24:42.556Z,39.70
2018-08-20T15:26:49.586Z,40.30
2018-08-20T15:28:53.782Z,40.50
2018-08-20T15:30:58.243Z,40.10
2018-08-20T15:33:06.229Z,39.40
2018-08-20T15:35:12.518Z,39.20
2018-08-20T15:37:16.463Z,38.60
2018-08-20T15:39:22.854Z,38.40
2018-08-20T15:41:26.900Z,38.90
2018-08-20T15:43:31.360Z,39.20
2018-08-20T15:45:37.282Z,39.00
2018-08-20T15:47:45.489Z,39.40
2018-08-20T15:49:49.638Z,39.50
2018-08-20T15:51:55.739Z,40.00
2018-08-20T15:54:02.888Z,40.20
2018-08-20T15:56:10.007Z,40.60
2018-08-20T15:58:14.712Z,40.70
2018-08-20T16:00:22.614Z,40.70
2018-08-20T16:02:31.139Z,40.80
2018-08-20T16:04:35.848Z,40.40
2018-08-20T16:06:41.228Z,40.50
2018-08-20T16:08:47.236Z,40.40
2018-08-20T16:10:54.115Z,40.40
2018-08-20T16:13:00.943Z,40.10
2018-08-20T16:15:06.290Z,40.20
2018-08-20T16:17:10.279Z,40.00
2018-08-20T16:19:21.210Z,40.50
2018-08-20T16:21:32.437Z,40.90
2018-08-20T16:23:44.660Z,40.50
2018-08-20T16:25:50.941Z,40.20
2018-08-20T16:27:55.834Z,40.30
2018-08-20T16:30:00.026Z,40.50
2018-08-20T16:32:04.768Z,40.40
2018-08-20T16:34:10.108Z,40.60
2018-08-20T16:36:18.544Z,40.70
2018-08-20T16:38:23.788Z,40.90
2018-08-20T16:40:30.879Z,41.10
2018-08-20T16:42:39.827Z,41.70
2018-08-20T16:44:49.059Z,41.80
2018-08-20T16:46:58.719Z,43.00
2018-08-20T16:49:09.720Z,44.70
2018-08-20T16:53:33.508Z,46.50
2018-08-20T16:55:46.696Z,47.50
2018-08-20T16:58:01.680Z,48.00
2018-08-20T17:00:26.479Z,47.60
2018-08-20T17:02:35.748Z,47.70
2018-08-20T17:04:44.761Z,46.90
2018-08-20T17:06:52.182Z,46.00
2018-08-20T17:09:01.732Z,45.10
2018-08-20T17:11:27.381Z,44.60
2018-08-20T17:13:35.146Z,44.30
2018-08-20T17:15:49.336Z,43.70
2018-08-20T17:17:56.376Z,43.70
2018-08-20T17:20:04.213Z,44.70
2018-08-20T17:22:11.513Z,45.90
2018-08-20T17:24:29.298Z,47.40
2018-08-20T17:26:35.625Z,48.80
2018-08-20T17:28:42.451Z,49.50
2018-08-20T17:30:52.368Z,50.50
2018-08-20T17:32:56.402Z,50.10
2018-08-20T17:35:03.948Z,50.50
2018-08-20T17:37:10.299Z,50.80
2018-08-20T17:39:17.924Z,51.70
2018-08-20T17:41:25.660Z,52.80
2018-08-20T17:43:30.908Z,53.20
2018-08-20T17:45:35.539Z,53.70
2018-08-20T17:47:41.339Z,54.10
2018-08-20T17:49:50.152Z,54.20
2018-08-20T17:51:56.745Z,54.00
2018-08-20T17:54:02.092Z,54.20
2018-08-20T17:56:09.479Z,54.50
2018-08-20T17:58:20.920Z,54.50
2018-08-20T18:00:33.592Z,54.50
2018-08-20T18:02:39.707Z,55.30
2018-08-20T18:04:46.683Z,55.60
2018-08-20T18:06:57.664Z,56.10
2018-08-20T18:09:04.417Z,56.50
2018-08-20T18:11:13.852Z,57.70
2018-08-20T18:14:01.637Z,58.40
2018-08-20T18:16:09.237Z,58.50
2018-08-20T18:18:16.078Z,59.00
2018-08-20T18:20:21.642Z,59.40
2018-08-20T18:22:26.377Z,59.50
2018-08-20T18:24:31.687Z,59.50
2018-08-20T18:26:42.744Z,59.60
2018-08-20T18:28:51.824Z,60.30
2018-08-20T18:31:05.666Z,60.60
2018-08-20T18:33:14.408Z,60.30
2018-08-20T18:35:26.457Z,60.20
2018-08-20T18:37:35.878Z,61.10
2018-08-20T18:39:53.301Z,60.50
2018-08-20T18:42:06.635Z,60.80
2018-08-20T18:44:10.794Z,61.10
2018-08-20T18:46:16.372Z,61.60
2018-08-20T18:48:25.443Z,61.90
2018-08-20T18:50:30.724Z,62.00
2018-08-20T18:52:37.549Z,61.90
2018-08-20T18:54:45.248Z,62.00
2018-08-20T18:56:54.309Z,61.10
2018-08-20T18:58:59.839Z,60.30
2018-08-20T19:01:04.696Z,60.10
2018-08-20T19:03:10.882Z,60.40
2018-08-20T19:05:19.845Z,60.60
2018-08-20T19:07:29.255Z,60.30
2018-08-20T19:09:34.282Z,60.40
2018-08-20T19:11:40.776Z,59.70
2018-08-20T19:13:46.218Z,59.40
2018-08-20T19:15:53.376Z,59.60
2018-08-20T19:18:01.326Z,59.70
2018-08-20T19:20:07.374Z,60.30
2018-08-20T19:22:21.393Z,60.40
2018-08-20T19:24:41.036Z,60.00
2018-08-20T19:26:46.364Z,60.40
2018-08-20T19:28:52.987Z,59.70
2018-08-20T19:31:03.688Z,60.60
2018-08-20T19:33:15.872Z,60.80
2018-08-20T19:35:22.172Z,60.50
2018-08-20T19:37:30.134Z,60.50
2018-08-20T19:39:36.688Z,59.80
2018-08-20T19:41:43.164Z,59.50
2018-08-20T19:44:00.338Z,58.80
2018-08-20T19:46:07.127Z,59.00
2018-08-20T19:48:18.090Z,58.40
2018-08-20T19:50:28.475Z,58.20
2018-08-20T19:52:34.239Z,58.50
2018-08-20T19:54:40.498Z,59.00
2018-08-20T19:56:50.241Z,58.70
2018-08-20T19:58:55.219Z,59.00
2018-08-20T20:01:10.988Z,58.90
2018-08-20T20:03:18.494Z,59.10
2018-08-20T20:05:27.192Z,59.90
2018-08-20T20:07:37.429Z,59.60
2018-08-20T20:09:43.911Z,59.70
2018-08-20T20:11:50.680Z,60.10
2018-08-20T20:14:03.858Z,60.20
2018-08-20T20:16:12.054Z,60.50
2018-08-20T20:18:21.401Z,60.30
2018-08-20T20:20:29.203Z,59.90
2018-08-20T20:22:41.854Z,59.80
2018-08-20T20:24:49.867Z,59.00
2018-08-20T20:26:57.441Z,58.60
2018-08-20T20:29:05.232Z,58.70
2018-08-20T20:31:12.374Z,59.20
2018-08-20T20:33:21.366Z,59.60
2018-08-20T20:35:27.969Z,59.40
2018-08-20T20:37:35.518Z,59.60
2018-08-20T20:39:52.692Z,60.20
2018-08-20T20:42:00.367Z,60.70
2018-08-20T20:44:11.338Z,60.50
2018-08-20T20:46:18.638Z,61.30
2018-08-20T20:48:27.533Z,61.30
2018-08-20T20:50:35.263Z,61.60
2018-08-20T20:52:42.400Z,61.40
2018-08-20T20:54:47.634Z,61.60
2018-08-20T20:56:54.443Z,61.80
2018-08-20T20:59:04.300Z,61.60
2018-08-20T21:01:16.372Z,62.10
2018-08-20T21:03:23.389Z,62.20
2018-08-20T21:05:31.518Z,61.80
2018-08-20T21:07:40.100Z,62.20
2018-08-20T21:09:49.376Z,62.50
2018-08-20T21:11:53.274Z,62.40
2018-08-20T21:13:58.626Z,62.50
2018-08-20T21:16:10.403Z,62.80
2018-08-20T21:18:16.251Z,62.80
2018-08-20T21:20:20.484Z,63.00
2018-08-20T21:22:28.801Z,63.00
2018-08-20T21:24:39.561Z,63.10
2018-08-20T21:26:45.637Z,63.30
2018-08-20T21:28:52.068Z,63.20
2018-08-20T21:30:58.309Z,63.70
2018-08-20T21:33:04.440Z,63.80
2018-08-20T21:35:10.264Z,64.60
2018-08-20T21:37:16.376Z,64.80
2018-08-20T21:39:22.305Z,64.40
2018-08-20T21:41:30.851Z,64.50
2018-08-20T21:43:46.906Z,65.00
2018-08-20T21:45:52.208Z,65.00
2018-08-20T21:47:58.344Z,65.10
2018-08-20T21:50:04.957Z,65.60
2018-08-20T21:52:09.824Z,66.10
2018-08-20T21:54:14.087Z,65.80
2018-08-20T21:56:20.300Z,65.10
2018-08-20T21:58:26.805Z,65.30
2018-08-20T22:00:33.989Z,65.30
2018-08-20T22:02:39.412Z,65.20
2018-08-20T22:04:43.448Z,65.30
2018-08-20T22:06:49.516Z,65.60
2018-08-20T22:08:56.512Z,65.80
2018-08-20T22:11:01.872Z,66.00
2018-08-20T22:13:05.855Z,65.90
2018-08-20T22:15:17.239Z,65.90
2018-08-20T22:17:27.908Z,65.90
2018-08-20T22:19:33.398Z,66.60
2018-08-20T22:21:39.443Z,67.20
2018-08-20T22:23:45.214Z,67.40
2018-08-20T22:25:55.863Z,67.60
2018-08-20T22:28:02.411Z,67.30
2018-08-20T22:30:09.651Z,67.10
2018-08-20T22:32:14.850Z,66.20
2018-08-20T22:34:20.427Z,66.80
2018-08-20T22:36:26.480Z,67.20
2018-08-20T22:38:40.007Z,67.80
2018-08-20T22:40:45.198Z,67.90
2018-08-20T22:43:00.123Z,67.60
2018-08-20T22:45:06.740Z,67.20
2018-08-20T22:47:15.544Z,67.00
2018-08-20T22:49:20.248Z,67.20
2018-08-20T22:51:27.617Z,67.10
2018-08-20T22:53:38.271Z,66.80
2018-08-20T22:55:56.417Z,66.80
2018-08-20T22:58:10.034Z,66.70
2018-08-20T23:00:30.281Z,67.00
2018-08-20T23:02:35.190Z,66.50
2018-08-20T23:04:39.135Z,66.60
2018-08-20T23:06:46.617Z,66.60
2018-08-20T23:08:52.340Z,66.50
2018-08-20T23:10:56.436Z,66.90
2018-08-20T23:13:02.419Z,67.00
2018-08-20T23:15:09.145Z,67.40
2018-08-20T23:17:13.421Z,67.50
2018-08-20T23:19:19.013Z,67.80
2018-08-20T23:21:23.953Z,67.80
2018-08-20T23:23:36.989Z,67.60
2018-08-20T23:25:43.455Z,67.80
2018-08-20T23:27:49.614Z,67.40
2018-08-20T23:29:53.577Z,67.50
2018-08-20T23:32:02.978Z,67.10
2018-08-20T23:34:14.822Z,67.20
2018-08-20T23:36:20.569Z,67.80
2018-08-20T23:38:27.886Z,68.10
2018-08-20T23:40:32.204Z,68.20
2018-08-20T23:42:36.188Z,68.30
2018-08-20T23:44:40.551Z,68.90
2018-08-20T23:46:46.328Z,68.00
2018-08-20T23:48:50.930Z,68.10
2018-08-20T23:51:04.586Z,68.80
2018-08-20T23:53:08.577Z,67.80
2018-08-20T23:55:12.610Z,67.90
2018-08-20T23:57:17.060Z,67.80
2018-08-20T23:59:21.277Z,67.80
